createdAt,value
2018-06-04T00:00:50.436Z,0
2018-06-04T00:01:52.444Z,0
2018-06-04T00:02:54.438Z,0
2018-06-04T00:03:56.443Z,0
2018-06-04T00:04:58.446Z,0
2018-06-04T00:06:00.452Z,0
2018-06-04T00:07:02.839Z,0
2018-06-04T00:08:04.844Z,0
2018-06-04T00:09:06.829Z,0
2018-06-04T00:10:08.838Z,0
2018-06-04T00:11:10.825Z,0
2018-06-04T00:12:13.214Z,0
2018-06-04T00:13:15.218Z,0
2018-06-04T00:14:17.212Z,0
2018-06-04T00:15:19.213Z,0
2018-06-04T00:16:21.506Z,0
2018-06-04T00:17:23.501Z,0
2018-06-04T00:18:25.893Z,0
2018-06-04T00:19:27.881Z,0
2018-06-04T00:20:29.896Z,0
2018-06-04T00:21:31.895Z,0
2018-06-04T00:22:33.896Z,0
2018-06-04T00:23:35.894Z,0
2018-06-04T00:24:37.893Z,0
2018-06-04T00:25:40.173Z,0
2018-06-04T00:26:42.171Z,0
2018-06-04T00:27:44.732Z,0
2018-06-04T00:28:46.734Z,0
2018-06-04T00:29:48.739Z,0
2018-06-04T00:30:50.737Z,0
2018-06-04T00:31:52.740Z,0
2018-06-04T00:32:55.039Z,0
2018-06-04T00:33:57.316Z,0
2018-06-04T00:34:59.330Z,0
2018-06-04T00:36:01.329Z,0
2018-06-04T00:37:03.323Z,0
2018-06-04T00:38:05.321Z,0
2018-06-04T00:39:07.314Z,0
2018-06-04T00:40:09.319Z,0
2018-06-04T00:41:11.314Z,0
2018-06-04T00:42:13.321Z,0
2018-06-04T00:43:15.315Z,0
2018-06-04T00:44:17.302Z,0
2018-06-04T00:45:19.303Z,0
2018-06-04T00:46:21.301Z,0
2018-06-04T00:47:23.294Z,0
2018-06-04T00:48:25.294Z,0
2018-06-04T00:49:27.297Z,0
2018-06-04T00:50:29.297Z,0
2018-06-04T00:51:31.293Z,0
2018-06-04T00:52:33.293Z,0
2018-06-04T00:53:35.294Z,0
2018-06-04T00:54:37.298Z,0
2018-06-04T00:55:39.289Z,0
2018-06-04T00:56:41.287Z,0
2018-06-04T00:57:43.285Z,0
2018-06-04T00:58:45.285Z,0
2018-06-04T00:59:47.285Z,0
2018-06-04T01:00:50.067Z,0
2018-06-04T01:01:52.069Z,0
2018-06-04T01:02:54.056Z,0
2018-06-04T01:03:56.344Z,0
2018-06-04T01:04:58.348Z,0
2018-06-04T01:06:00.341Z,0
2018-06-04T01:07:02.338Z,0
2018-06-04T01:08:04.638Z,0
2018-06-04T01:09:07.021Z,0
2018-06-04T01:10:09.018Z,0
2018-06-04T01:11:11.020Z,0
2018-06-04T01:12:13.026Z,0
2018-06-04T01:13:15.024Z,0
2018-06-04T01:14:17.318Z,0
2018-06-04T01:15:19.303Z,0
2018-06-04T01:16:21.608Z,0
2018-06-04T01:17:23.598Z,0
2018-06-04T01:18:26.266Z,0
2018-06-04T01:19:28.848Z,0
2018-06-04T01:20:30.845Z,0
2018-06-04T01:21:33.424Z,0
2018-06-04T01:22:35.428Z,0
2018-06-04T01:23:37.422Z,0
2018-06-04T01:24:39.436Z,0
2018-06-04T01:25:41.424Z,0
2018-06-04T01:26:43.439Z,0
2018-06-04T01:27:45.439Z,0
2018-06-04T01:28:47.433Z,0
2018-06-04T01:29:49.431Z,0
2018-06-04T01:30:51.815Z,0
2018-06-04T01:31:53.813Z,0
2018-06-04T01:32:56.090Z,0
2018-06-04T01:33:58.363Z,0
2018-06-04T01:35:00.759Z,0
2018-06-04T01:36:03.042Z,0
2018-06-04T01:37:05.326Z,0
2018-06-04T01:38:07.324Z,0
2018-06-04T01:39:09.329Z,0
2018-06-04T01:40:11.330Z,0
2018-06-04T01:41:13.335Z,0
2018-06-04T01:42:15.327Z,0
2018-06-04T01:43:17.325Z,0
2018-06-04T01:44:19.703Z,0
2018-06-04T01:45:21.693Z,0
2018-06-04T01:46:23.689Z,0
2018-06-04T01:47:26.087Z,0
2018-06-04T01:48:28.075Z,0
2018-06-04T01:49:30.074Z,0
2018-06-04T01:50:32.062Z,0
2018-06-04T01:51:34.063Z,0
2018-06-04T01:52:36.060Z,0
2018-06-04T01:53:38.062Z,0
2018-06-04T01:54:40.062Z,0
2018-06-04T01:55:42.065Z,0
2018-06-04T01:56:44.062Z,0
2018-06-04T01:57:46.324Z,0
2018-06-04T01:58:48.892Z,0
2018-06-04T01:59:50.901Z,0
2018-06-04T02:00:52.901Z,0
2018-06-04T02:01:54.906Z,0
2018-06-04T02:02:57.289Z,0
2018-06-04T02:03:59.956Z,0
2018-06-04T02:05:01.960Z,0
2018-06-04T02:06:03.959Z,0
2018-06-04T02:07:05.970Z,0
2018-06-04T02:08:07.970Z,0
2018-06-04T02:09:10.238Z,0
2018-06-04T02:10:12.239Z,0
2018-06-04T02:11:14.520Z,0
2018-06-04T02:12:17.189Z,0
2018-06-04T02:13:19.176Z,0
2018-06-04T02:14:21.463Z,0
2018-06-04T02:15:23.753Z,0
2018-06-04T02:16:25.743Z,0
2018-06-04T02:17:28.022Z,0
2018-06-04T02:18:30.309Z,0
2018-06-04T02:19:32.597Z,0
2018-06-04T02:20:34.594Z,0
2018-06-04T02:21:36.591Z,0
2018-06-04T02:22:38.590Z,0
2018-06-04T02:23:40.865Z,0
2018-06-04T02:24:42.867Z,0
2018-06-04T02:25:44.862Z,0
2018-06-04T02:26:46.861Z,0
2018-06-04T02:27:48.860Z,0
2018-06-04T02:28:50.904Z,0
2018-06-04T02:29:52.876Z,0
2018-06-04T02:30:55.443Z,0
2018-06-04T02:31:57.721Z,0
2018-06-04T02:32:59.712Z,0
2018-06-04T02:34:02.002Z,0
2018-06-04T02:35:03.994Z,0
2018-06-04T02:36:06.381Z,0
2018-06-04T02:37:08.677Z,0
2018-06-04T02:38:10.944Z,0
2018-06-04T02:39:13.230Z,0
2018-06-04T02:40:15.536Z,0
2018-06-04T02:41:17.532Z,0
2018-06-04T02:42:19.528Z,1
2018-06-04T02:43:21.940Z,1
2018-06-04T02:44:24.225Z,1
2018-06-04T02:45:26.896Z,1
2018-06-04T02:46:29.183Z,1
2018-06-04T02:47:31.466Z,1
2018-06-04T02:48:33.846Z,1
2018-06-04T02:49:36.216Z,1
2018-06-04T02:50:38.504Z,1
2018-06-04T02:51:40.885Z,2
2018-06-04T02:52:42.885Z,2
2018-06-04T02:53:45.165Z,2
2018-06-04T02:54:47.163Z,2
2018-06-04T02:55:49.456Z,2
2018-06-04T02:56:51.826Z,2
2018-06-04T02:57:54.213Z,2
2018-06-04T02:58:56.223Z,2
2018-06-04T02:59:58.225Z,3
2018-06-04T03:01:00.607Z,3
2018-06-04T03:02:02.883Z,3
2018-06-04T03:03:05.186Z,3
2018-06-04T03:04:07.182Z,3
2018-06-04T03:05:09.477Z,4
2018-06-04T03:06:11.787Z,4
2018-06-04T03:07:14.060Z,4
2018-06-04T03:08:16.058Z,4
2018-06-04T03:09:18.053Z,4
2018-06-04T03:10:20.353Z,4
2018-06-04T03:11:22.359Z,5
2018-06-04T03:12:24.649Z,5
2018-06-04T03:13:26.646Z,5
2018-06-04T03:14:28.645Z,5
2018-06-04T03:15:30.637Z,5
2018-06-04T03:16:32.634Z,6
2018-06-04T03:17:34.918Z,6
2018-06-04T03:18:36.913Z,6
2018-06-04T03:19:38.914Z,6
2018-06-04T03:20:40.907Z,7
2018-06-04T03:21:42.911Z,7
2018-06-04T03:22:44.913Z,7
2018-06-04T03:23:46.913Z,7
2018-06-04T03:24:48.903Z,8
2018-06-04T03:25:50.899Z,8
2018-06-04T03:26:52.896Z,8
2018-06-04T03:27:54.899Z,8
2018-06-04T03:28:57.275Z,9
2018-06-04T03:29:59.567Z,9
2018-06-04T03:31:02.116Z,9
2018-06-04T03:32:04.506Z,9
2018-06-04T03:33:06.803Z,10
2018-06-04T03:34:09.088Z,10
2018-06-04T03:35:11.090Z,10
2018-06-04T03:36:13.087Z,10
2018-06-04T03:37:15.077Z,11
2018-06-04T03:38:17.365Z,11
2018-06-04T03:39:19.350Z,11
2018-06-04T03:40:21.353Z,12
2018-06-04T03:41:23.351Z,12
2018-06-04T03:42:25.349Z,12
2018-06-04T03:43:27.348Z,13
2018-06-04T03:44:29.343Z,13
2018-06-04T03:45:31.340Z,13
2018-06-04T03:46:33.349Z,13
2018-06-04T03:47:35.616Z,14
2018-06-04T03:48:37.907Z,14
2018-06-04T03:49:40.570Z,14
2018-06-04T03:50:42.574Z,14
2018-06-04T03:51:44.565Z,15
2018-06-04T03:52:46.559Z,15
2018-06-04T03:53:48.555Z,15
2018-06-04T03:54:50.942Z,15
2018-06-04T03:55:52.935Z,16
2018-06-04T03:56:54.937Z,16
2018-06-04T03:57:56.929Z,16
2018-06-04T03:58:58.924Z,16
2018-06-04T04:00:00.920Z,17
2018-06-04T04:01:02.928Z,17
2018-06-04T04:02:04.918Z,17
2018-06-04T04:03:06.917Z,17
2018-06-04T04:04:08.908Z,18
2018-06-04T04:05:10.902Z,18
2018-06-04T04:06:12.900Z,18
2018-06-04T04:07:14.895Z,19
2018-06-04T04:08:16.920Z,19
2018-06-04T04:09:18.893Z,19
2018-06-04T04:10:20.873Z,19
2018-06-04T04:11:22.876Z,19
2018-06-04T04:12:24.880Z,20
2018-06-04T04:13:26.875Z,20
2018-06-04T04:14:28.880Z,21
2018-06-04T04:15:30.876Z,20
2018-06-04T04:16:32.880Z,21
2018-06-04T04:17:34.871Z,21
2018-06-04T04:18:36.864Z,21
2018-06-04T04:19:38.850Z,20
2018-06-04T04:20:40.853Z,21
2018-06-04T04:21:42.857Z,21
2018-06-04T04:22:44.850Z,22
2018-06-04T04:23:47.227Z,22
2018-06-04T04:24:49.230Z,21
2018-06-04T04:25:51.225Z,22
2018-06-04T04:26:53.218Z,23
2018-06-04T04:27:55.628Z,22
2018-06-04T04:28:57.608Z,26
2018-06-04T04:29:59.598Z,26
2018-06-04T04:31:01.586Z,24
2018-06-04T04:32:03.879Z,26
2018-06-04T04:33:05.871Z,21
2018-06-04T04:34:07.865Z,19
2018-06-04T04:35:09.871Z,19
2018-06-04T04:36:11.919Z,19
2018-06-04T04:37:13.874Z,20
2018-06-04T04:38:15.871Z,21
2018-06-04T04:39:18.454Z,22
2018-06-04T04:40:20.455Z,23
2018-06-04T04:41:22.456Z,23
2018-06-04T04:42:24.727Z,24
2018-06-04T04:43:26.733Z,23
2018-06-04T04:44:28.735Z,24
2018-06-04T04:45:30.724Z,23
2018-06-04T04:46:32.724Z,23
2018-06-04T04:47:34.719Z,24
2018-06-04T04:48:36.716Z,23
2018-06-04T04:49:38.714Z,23
2018-06-04T04:50:40.699Z,23
2018-06-04T04:51:42.985Z,21
2018-06-04T04:52:44.983Z,21
2018-06-04T04:53:46.983Z,23
2018-06-04T04:54:48.974Z,24
2018-06-04T04:55:50.965Z,25
2018-06-04T04:56:52.962Z,26
2018-06-04T04:57:55.530Z,29
2018-06-04T04:58:57.812Z,28
2018-06-04T05:00:00.092Z,28
2018-06-04T05:01:02.470Z,28
2018-06-04T05:02:04.776Z,28
2018-06-04T05:03:06.768Z,28
2018-06-04T05:04:09.066Z,29
2018-06-04T05:05:11.067Z,28
2018-06-04T05:06:13.062Z,29
2018-06-04T05:07:15.057Z,29
2018-06-04T05:08:17.054Z,29
2018-06-04T05:09:19.442Z,30
2018-06-04T05:10:21.437Z,28
2018-06-04T05:11:23.424Z,30
2018-06-04T05:12:25.427Z,28
2018-06-04T05:13:27.430Z,29
2018-06-04T05:14:29.421Z,27
2018-06-04T05:15:32.081Z,27
2018-06-04T05:16:34.077Z,29
2018-06-04T05:17:36.080Z,29
2018-06-04T05:18:38.348Z,28
2018-06-04T05:19:40.346Z,29
2018-06-04T05:20:42.737Z,27
2018-06-04T05:21:44.736Z,28
2018-06-04T05:22:46.742Z,29
2018-06-04T05:23:48.739Z,27
2018-06-04T05:24:50.740Z,26
2018-06-04T05:25:52.732Z,27
2018-06-04T05:26:54.734Z,29
2018-06-04T05:27:56.737Z,32
2018-06-04T05:28:58.738Z,36
2018-06-04T05:30:00.733Z,34
2018-06-04T05:31:03.015Z,31
2018-06-04T05:32:05.588Z,33
2018-06-04T05:33:07.601Z,31
2018-06-04T05:34:09.598Z,31
2018-06-04T05:35:11.592Z,37
2018-06-04T05:36:13.589Z,29
2018-06-04T05:37:15.594Z,32
2018-06-04T05:38:17.593Z,32
2018-06-04T05:39:19.594Z,33
2018-06-04T05:40:21.889Z,29
2018-06-04T05:41:23.892Z,37
2018-06-04T05:42:25.904Z,34
2018-06-04T05:43:28.169Z,31
2018-06-04T05:44:30.454Z,34
2018-06-04T05:45:32.734Z,40
2018-06-04T05:46:35.117Z,40
2018-06-04T05:47:37.109Z,37
2018-06-04T05:48:39.107Z,38
2018-06-04T05:49:41.108Z,46
2018-06-04T05:50:43.097Z,45
2018-06-04T05:51:45.098Z,48
2018-06-04T05:52:47.097Z,45
2018-06-04T05:53:49.655Z,42
2018-06-04T05:54:51.650Z,49
2018-06-04T05:55:53.650Z,38
2018-06-04T05:56:55.658Z,37
2018-06-04T05:57:57.656Z,41
2018-06-04T05:58:59.643Z,40
2018-06-04T06:00:01.649Z,36
2018-06-04T06:01:03.654Z,39
2018-06-04T06:02:05.951Z,38
2018-06-04T06:03:07.950Z,39
2018-06-04T06:04:10.225Z,44
2018-06-04T06:05:12.233Z,45
2018-06-04T06:06:14.493Z,46
2018-06-04T06:07:16.497Z,42
2018-06-04T06:08:18.499Z,38
2018-06-04T06:09:20.880Z,51
2018-06-04T06:10:22.883Z,55
2018-06-04T06:11:25.270Z,54
2018-06-04T06:12:27.549Z,40
2018-06-04T06:13:29.549Z,41
2018-06-04T06:14:31.546Z,56
2018-06-04T06:15:33.840Z,56
2018-06-04T06:16:36.509Z,39
2018-06-04T06:17:38.508Z,41
2018-06-04T06:18:40.801Z,51
2018-06-04T06:19:43.174Z,40
2018-06-04T06:20:45.133Z,38
2018-06-04T06:21:47.136Z,53
2018-06-04T06:22:49.141Z,54
2018-06-04T06:23:51.422Z,53
2018-06-04T06:24:53.686Z,51
2018-06-04T06:25:55.689Z,49
2018-06-04T06:26:57.683Z,52
2018-06-04T06:27:59.682Z,54
2018-06-04T06:29:01.699Z,52
2018-06-04T06:30:04.011Z,52
2018-06-04T06:31:06.012Z,53
2018-06-04T06:32:08.000Z,67
2018-06-04T06:33:09.998Z,67
2018-06-04T06:34:11.995Z,68
2018-06-04T06:35:14.002Z,61
2018-06-04T06:36:16.002Z,72
2018-06-04T06:37:18.011Z,70
2018-06-04T06:38:20.020Z,73
2018-06-04T06:39:22.012Z,70
2018-06-04T06:40:24.016Z,72
2018-06-04T06:41:26.022Z,70
2018-06-04T06:42:28.021Z,73
2018-06-04T06:43:30.023Z,76
2018-06-04T06:44:32.015Z,67
2018-06-04T06:45:34.353Z,58
2018-06-04T06:46:36.402Z,58
2018-06-04T06:47:38.455Z,57
2018-06-04T06:48:40.512Z,43
2018-06-04T06:49:42.594Z,44
2018-06-04T06:50:44.638Z,43
2018-06-04T06:51:46.733Z,44
2018-06-04T06:52:48.782Z,42
2018-06-04T06:53:50.874Z,39
2018-06-04T06:54:52.920Z,37
2018-06-04T06:55:55.313Z,37
2018-06-04T06:56:57.361Z,36
2018-06-04T06:57:59.400Z,53
2018-06-04T06:59:01.442Z,53
2018-06-04T07:00:04.152Z,54
2018-06-04T07:01:06.249Z,58
2018-06-04T07:02:08.403Z,61
2018-06-04T07:03:10.432Z,64
2018-06-04T07:04:12.480Z,70
2018-06-04T07:05:14.599Z,66
2018-06-04T07:06:16.640Z,65
2018-06-04T07:07:18.807Z,68
2018-06-04T07:08:20.851Z,65
2018-06-04T07:09:22.895Z,67
2018-06-04T07:10:24.943Z,60
2018-06-04T07:11:27.054Z,58
2018-06-04T07:12:29.105Z,63
2018-06-04T07:13:31.224Z,71
2018-06-04T07:14:33.684Z,76
2018-06-04T07:15:35.700Z,88
2018-06-04T07:16:37.740Z,93
2018-06-04T07:17:39.782Z,89
2018-06-04T07:18:41.834Z,74
2018-06-04T07:19:43.871Z,66
2018-06-04T07:20:45.963Z,66
2018-06-04T07:21:48.251Z,68
2018-06-04T07:22:50.975Z,60
2018-06-04T07:23:53.018Z,57
2018-06-04T07:24:55.056Z,78
2018-06-04T07:25:57.099Z,95
2018-06-04T07:26:59.102Z,100
2018-06-04T07:28:01.109Z,99
2018-06-04T07:29:03.097Z,83
2018-06-04T07:30:05.391Z,81
2018-06-04T07:31:07.391Z,73
2018-06-04T07:32:09.777Z,68
2018-06-04T07:33:12.071Z,68
2018-06-04T07:34:14.072Z,69
2018-06-04T07:35:16.073Z,68
2018-06-04T07:36:18.356Z,78
2018-06-04T07:37:20.357Z,75
2018-06-04T07:38:22.371Z,69
2018-06-04T07:39:24.372Z,64
2018-06-04T07:40:26.393Z,67
2018-06-04T07:41:28.673Z,63
2018-06-04T07:42:30.677Z,61
2018-06-04T07:43:33.988Z,66
2018-06-04T07:44:36.030Z,73
2018-06-04T07:45:38.986Z,78
2018-06-04T07:46:41.693Z,74
2018-06-04T07:47:43.690Z,75
2018-06-04T07:48:50.540Z,80
2018-06-04T07:49:52.919Z,82
2018-06-04T07:50:54.865Z,88
2018-06-04T07:51:56.862Z,101
2018-06-04T07:52:58.862Z,105
2018-06-04T07:54:00.900Z,88
2018-06-04T07:55:02.896Z,79
2018-06-04T07:56:05.200Z,75
2018-06-04T07:57:07.213Z,68
2018-06-04T07:58:09.500Z,68
2018-06-04T07:59:11.784Z,68
2018-06-04T08:00:13.789Z,64
2018-06-04T08:01:15.796Z,68
2018-06-04T08:02:17.797Z,68
2018-06-04T08:03:19.807Z,81
2018-06-04T08:04:21.859Z,77
2018-06-04T08:05:24.097Z,70
2018-06-04T08:06:26.409Z,68
2018-06-04T08:07:28.411Z,70
2018-06-04T08:08:30.407Z,70
2018-06-04T08:09:32.405Z,67
2018-06-04T08:10:34.407Z,63
2018-06-04T08:11:36.423Z,59
2018-06-04T08:12:38.422Z,61
2018-06-04T08:13:40.425Z,65
2018-06-04T08:14:42.427Z,60
2018-06-04T08:15:44.432Z,58
2018-06-04T08:16:46.428Z,55
2018-06-04T08:17:48.440Z,59
2018-06-04T08:18:50.718Z,67
2018-06-04T08:19:53.027Z,73
2018-06-04T08:20:55.024Z,81
2018-06-04T08:21:59.415Z,100
2018-06-04T08:23:01.420Z,116
2018-06-04T08:24:03.443Z,119
2018-06-04T08:25:05.698Z,113
2018-06-04T08:26:07.700Z,104
2018-06-04T08:27:09.695Z,101
2018-06-04T08:28:11.703Z,102
2018-06-04T08:29:13.758Z,93
2018-06-04T08:30:15.714Z,79
2018-06-04T08:31:17.718Z,71
2018-06-04T08:32:20.007Z,67
2018-06-04T08:33:22.581Z,66
2018-06-04T08:34:24.584Z,74
2018-06-04T08:35:26.581Z,72
2018-06-04T08:36:28.587Z,64
2018-06-04T08:37:30.592Z,59
2018-06-04T08:38:32.661Z,57
2018-06-04T08:39:34.977Z,58
2018-06-04T08:40:36.978Z,58
2018-06-04T08:41:38.981Z,55
2018-06-04T08:42:40.980Z,54
2018-06-04T08:43:42.984Z,60
2018-06-04T08:44:44.972Z,70
2018-06-04T08:45:47.430Z,74
2018-06-04T08:46:49.404Z,67
2018-06-04T08:47:51.403Z,60
2018-06-04T08:48:53.403Z,57
2018-06-04T08:49:55.409Z,55
2018-06-04T08:50:57.879Z,55
2018-06-04T08:51:59.857Z,55
2018-06-04T08:53:01.858Z,54
2018-06-04T08:54:03.867Z,55
2018-06-04T08:55:05.861Z,57
2018-06-04T08:56:07.850Z,61
2018-06-04T08:57:09.851Z,59
2018-06-04T08:58:12.239Z,55
2018-06-04T08:59:14.235Z,53
2018-06-04T09:00:16.237Z,51
2018-06-04T09:01:18.549Z,52
2018-06-04T09:02:20.548Z,54
2018-06-04T09:03:22.552Z,53
2018-06-04T09:04:24.936Z,50
2018-06-04T09:05:26.936Z,51
2018-06-04T09:06:28.942Z,55
2018-06-04T09:07:30.938Z,58
2018-06-04T09:08:32.943Z,59
2018-06-04T09:09:34.951Z,65
2018-06-04T09:10:36.947Z,69
2018-06-04T09:11:38.947Z,87
2018-06-04T09:12:40.945Z,90
2018-06-04T09:13:42.953Z,94
2018-06-04T09:14:44.945Z,92
2018-06-04T09:15:47.377Z,85
2018-06-04T09:16:49.595Z,79
2018-06-04T09:17:51.931Z,84
2018-06-04T09:18:53.973Z,84
2018-06-04T09:19:56.023Z,80
2018-06-04T09:20:58.064Z,79
2018-06-04T09:22:00.125Z,81
2018-06-04T09:23:02.460Z,78
2018-06-04T09:24:04.499Z,70
2018-06-04T09:25:07.301Z,62
2018-06-04T09:26:09.332Z,58
2018-06-04T09:27:11.378Z,56
2018-06-04T09:28:13.427Z,58
2018-06-04T09:29:15.499Z,57
2018-06-04T09:30:17.540Z,62
2018-06-04T09:31:19.583Z,62
2018-06-04T09:32:22.492Z,67
2018-06-04T09:33:24.475Z,72
2018-06-04T09:34:26.515Z,70
2018-06-04T09:35:28.571Z,75
2018-06-04T09:36:30.624Z,85
2018-06-04T09:37:32.674Z,86
2018-06-04T09:38:35.108Z,101
2018-06-04T09:39:37.143Z,103
2018-06-04T09:40:39.190Z,93
2018-06-04T09:41:42.983Z,84
2018-06-04T09:42:46.253Z,75
2018-06-04T09:43:49.395Z,68
2018-06-04T09:44:51.757Z,64
2018-06-04T09:45:53.812Z,60
2018-06-04T09:46:55.852Z,59
2018-06-04T09:47:57.895Z,57
2018-06-04T09:48:59.940Z,55
2018-06-04T09:50:02.392Z,55
2018-06-04T09:51:04.425Z,55
2018-06-04T09:52:06.473Z,51
2018-06-04T09:53:08.525Z,51
2018-06-04T09:54:11.500Z,52
2018-06-04T09:55:13.861Z,56
2018-06-04T09:56:15.907Z,58
2018-06-04T09:57:17.962Z,59
2018-06-04T09:58:20.020Z,60
2018-06-04T09:59:22.057Z,62
2018-06-04T10:00:24.580Z,67
2018-06-04T10:01:26.900Z,76
2018-06-04T10:02:29.170Z,82
2018-06-04T10:03:31.280Z,84
2018-06-04T10:04:33.707Z,89
2018-06-04T10:05:35.791Z,95
2018-06-04T10:06:38.239Z,103
2018-06-04T10:07:40.274Z,113
2018-06-04T10:08:42.325Z,117
2018-06-04T10:09:44.672Z,119
2018-06-04T10:10:46.716Z,112
2018-06-04T10:11:48.757Z,108
2018-06-04T10:12:51.042Z,102
2018-06-04T10:13:53.052Z,106
2018-06-04T10:14:55.054Z,103
2018-06-04T10:15:57.446Z,87
2018-06-04T10:16:59.485Z,82
2018-06-04T10:18:01.487Z,81
2018-06-04T10:19:03.481Z,81
2018-06-04T10:20:05.523Z,73
2018-06-04T10:21:07.957Z,70
2018-06-04T10:22:10.009Z,68
2018-06-04T10:23:12.054Z,68
2018-06-04T10:24:14.100Z,68
2018-06-04T10:25:16.435Z,68
2018-06-04T10:26:18.475Z,70
2018-06-04T10:27:20.519Z,72
2018-06-04T10:28:22.564Z,64
2018-06-04T10:29:24.613Z,59
2018-06-04T10:30:26.661Z,58
2018-06-04T10:31:28.903Z,57
2018-06-04T10:32:32.525Z,57
2018-06-04T10:33:35.276Z,58
2018-06-04T10:34:38.077Z,63
2018-06-04T10:35:40.966Z,72
2018-06-04T10:36:43.148Z,71
2018-06-04T10:37:45.451Z,68
2018-06-04T10:38:47.579Z,65
2018-06-04T10:39:49.625Z,63
2018-06-04T10:40:51.758Z,63
2018-06-04T10:41:53.858Z,63
2018-06-04T10:42:55.987Z,65
2018-06-04T10:43:58.079Z,68
2018-06-04T10:45:00.132Z,71
2018-06-04T10:46:02.250Z,71
2018-06-04T10:47:04.299Z,65
2018-06-04T10:48:06.527Z,64
2018-06-04T10:49:08.969Z,60
2018-06-04T10:50:11.436Z,55
2018-06-04T10:51:13.482Z,52
2018-06-04T10:52:16.061Z,50
2018-06-04T10:53:18.345Z,53
2018-06-04T10:54:20.346Z,51
2018-06-04T10:55:22.630Z,51
2018-06-04T10:56:24.635Z,54
2018-06-04T10:57:26.695Z,57
2018-06-04T10:58:28.737Z,57
2018-06-04T10:59:30.779Z,56
2018-06-04T11:00:33.123Z,59
2018-06-04T11:01:35.088Z,58
2018-06-04T11:02:37.793Z,58
2018-06-04T11:03:39.784Z,60
2018-06-04T11:04:41.790Z,66
2018-06-04T11:05:43.791Z,76
2018-06-04T11:06:46.073Z,87
2018-06-04T11:07:48.079Z,95
2018-06-04T11:08:50.089Z,98
2018-06-04T11:09:52.380Z,96
2018-06-04T11:10:54.403Z,95
2018-06-04T11:11:57.086Z,90
2018-06-04T11:12:59.101Z,81
2018-06-04T11:14:01.658Z,75
2018-06-04T11:15:03.675Z,71
2018-06-04T11:16:06.254Z,66
2018-06-04T11:17:08.272Z,64
2018-06-04T11:18:10.307Z,67
2018-06-04T11:19:12.309Z,73
2018-06-04T11:20:14.316Z,74
2018-06-04T11:21:16.337Z,78
2018-06-04T11:22:18.344Z,85
2018-06-04T11:23:20.367Z,91
2018-06-04T11:24:22.366Z,98
2018-06-04T11:25:24.383Z,102
2018-06-04T11:26:26.413Z,111
2018-06-04T11:27:28.793Z,117
2018-06-04T11:28:30.828Z,121
2018-06-04T11:29:32.840Z,128
2018-06-04T11:30:35.271Z,138
2018-06-04T11:31:37.291Z,148
2018-06-04T11:32:39.290Z,154
2018-06-04T11:33:41.305Z,147
2018-06-04T11:34:43.313Z,150
2018-06-04T11:35:45.595Z,117
2018-06-04T11:36:47.606Z,95
2018-06-04T11:37:49.600Z,78
2018-06-04T11:38:51.603Z,70
2018-06-04T11:39:53.638Z,64
2018-06-04T11:40:55.639Z,59
2018-06-04T11:41:57.643Z,62
2018-06-04T11:42:59.651Z,68
2018-06-04T11:44:01.653Z,70
2018-06-04T11:45:03.953Z,68
2018-06-04T11:46:06.249Z,75
2018-06-04T11:47:08.280Z,89
2018-06-04T11:48:10.300Z,106
2018-06-04T11:49:12.296Z,133
2018-06-04T11:50:14.316Z,130
2018-06-04T11:51:16.335Z,113
2018-06-04T11:52:18.346Z,98
2018-06-04T11:53:20.353Z,96
2018-06-04T11:54:22.358Z,91
2018-06-04T11:55:24.364Z,92
2018-06-04T11:56:26.849Z,102
2018-06-04T11:57:29.520Z,108
2018-06-04T11:58:32.194Z,107
2018-06-04T11:59:34.201Z,113
2018-06-04T12:00:36.242Z,124
2018-06-04T12:01:38.249Z,123
2018-06-04T12:02:40.553Z,121
2018-06-04T12:03:42.573Z,139
2018-06-04T12:04:44.579Z,138
2018-06-04T12:05:46.585Z,117
2018-06-04T12:06:48.597Z,92
2018-06-04T12:07:51.170Z,85
2018-06-04T12:08:53.182Z,82
2018-06-04T12:09:55.182Z,81
2018-06-04T12:10:57.197Z,84
2018-06-04T12:11:59.209Z,94
2018-06-04T12:13:01.205Z,104
2018-06-04T12:14:03.602Z,102
2018-06-04T12:15:05.614Z,93
2018-06-04T12:16:07.634Z,90
2018-06-04T12:17:09.653Z,88
2018-06-04T12:18:11.671Z,84
2018-06-04T12:19:14.252Z,80
2018-06-04T12:20:16.258Z,77
2018-06-04T12:21:18.259Z,78
2018-06-04T12:22:20.553Z,80
2018-06-04T12:23:22.557Z,84
2018-06-04T12:24:24.839Z,92
2018-06-04T12:25:27.220Z,95
2018-06-04T12:26:29.224Z,98
2018-06-04T12:27:31.235Z,101
2018-06-04T12:28:33.239Z,102
2018-06-04T12:29:35.237Z,100
2018-06-04T12:30:37.243Z,92
2018-06-04T12:31:39.251Z,86
2018-06-04T12:32:41.254Z,83
2018-06-04T12:33:43.258Z,79
2018-06-04T12:34:45.252Z,75
2018-06-04T12:35:47.545Z,73
2018-06-04T12:36:49.829Z,73
2018-06-04T12:37:51.833Z,73
2018-06-04T12:38:53.838Z,71
2018-06-04T12:39:55.837Z,71
2018-06-04T12:40:57.841Z,69
2018-06-04T12:41:59.840Z,69
2018-06-04T12:43:02.119Z,69
2018-06-04T12:44:04.421Z,70
2018-06-04T12:45:06.422Z,71
2018-06-04T12:46:08.704Z,72
2018-06-04T12:47:10.712Z,73
2018-06-04T12:48:12.709Z,71
2018-06-04T12:49:14.993Z,70
2018-06-04T12:50:16.997Z,70
2018-06-04T12:51:19.283Z,68
2018-06-04T12:52:21.287Z,65
2018-06-04T12:53:23.285Z,64
2018-06-04T12:54:25.683Z,65
2018-06-04T12:55:27.683Z,69
2018-06-04T12:56:29.684Z,70
2018-06-04T12:58:35.925Z,71
2018-06-04T12:59:38.205Z,66
2018-06-04T13:00:40.213Z,66
2018-06-04T13:01:42.213Z,65
2018-06-04T13:02:44.223Z,66
2018-06-04T13:03:46.235Z,68
2018-06-04T13:04:48.567Z,70
2018-06-04T13:05:50.925Z,74
2018-06-04T13:06:52.926Z,78
2018-06-04T13:07:55.492Z,79
2018-06-04T13:08:57.503Z,80
2018-06-04T13:09:59.790Z,81
2018-06-04T13:11:02.166Z,80
2018-06-04T13:12:04.178Z,81
2018-06-04T13:13:06.177Z,80
2018-06-04T13:14:08.180Z,79
2018-06-04T13:15:10.482Z,79
2018-06-04T13:16:12.769Z,81
2018-06-04T13:17:14.772Z,82
2018-06-04T13:18:16.770Z,77
2018-06-04T13:19:18.777Z,75
2018-06-04T13:20:21.083Z,75
2018-06-04T13:21:23.381Z,73
2018-06-04T13:22:25.386Z,71
2018-06-04T13:23:27.384Z,75
2018-06-04T13:24:29.383Z,75
2018-06-04T13:25:31.387Z,73
2018-06-04T13:26:33.391Z,72
2018-06-04T13:27:36.107Z,71
2018-06-04T13:28:38.103Z,72
2018-06-04T13:29:40.093Z,75
2018-06-04T13:30:42.097Z,75
2018-06-04T13:31:44.387Z,76
2018-06-04T13:32:46.396Z,76
2018-06-04T13:33:48.397Z,74
2018-06-04T13:34:50.406Z,76
2018-06-04T13:35:52.415Z,82
2018-06-04T13:36:54.405Z,82
2018-06-04T13:37:56.413Z,81
2018-06-04T13:38:58.692Z,79
2018-06-04T13:40:00.695Z,79
2018-06-04T13:41:02.703Z,79
2018-06-04T13:42:04.704Z,83
2018-06-04T13:43:06.705Z,87
2018-06-04T13:44:08.707Z,90
2018-06-04T13:45:11.006Z,93
2018-06-04T13:46:13.001Z,92
2018-06-04T13:47:15.002Z,86
2018-06-04T13:48:17.000Z,79
2018-06-04T13:49:18.996Z,73
2018-06-04T13:50:21.036Z,69
2018-06-04T13:51:23.003Z,64
2018-06-04T13:52:25.011Z,61
2018-06-04T13:53:27.020Z,61
2018-06-04T13:54:29.014Z,63
2018-06-04T13:55:31.025Z,64
2018-06-04T13:56:33.028Z,64
2018-06-04T13:57:35.030Z,64
2018-06-04T13:58:37.032Z,65
2018-06-04T13:59:39.034Z,65
2018-06-04T14:00:41.043Z,62
2018-06-04T14:01:43.040Z,60
2018-06-04T14:02:45.077Z,56
2018-06-04T14:03:47.389Z,58
2018-06-04T14:04:49.675Z,61
2018-06-04T14:05:51.672Z,60
2018-06-04T14:06:53.674Z,61
2018-06-04T14:07:55.961Z,66
2018-06-04T14:08:58.246Z,66
2018-06-04T14:10:00.244Z,62
2018-06-04T14:11:02.656Z,64
2018-06-04T14:12:04.666Z,63
2018-06-04T14:13:06.668Z,61
2018-06-04T14:14:08.664Z,60
2018-06-04T14:15:10.675Z,63
2018-06-04T14:16:13.061Z,73
2018-06-04T14:17:15.050Z,73
2018-06-04T14:18:17.053Z,66
2018-06-04T14:19:19.052Z,63
2018-06-04T14:20:21.053Z,61
2018-06-04T14:21:23.052Z,59
2018-06-04T14:22:25.057Z,60
2018-06-04T14:23:27.059Z,64
2018-06-04T14:24:29.067Z,71
2018-06-04T14:25:31.067Z,70
2018-06-04T14:26:33.436Z,74
2018-06-04T14:27:35.452Z,68
2018-06-04T14:28:37.436Z,68
2018-06-04T14:29:39.434Z,68
2018-06-04T14:30:41.434Z,66
2018-06-04T14:31:43.718Z,66
2018-06-04T14:32:45.729Z,68
2018-06-04T14:33:48.397Z,69
2018-06-04T14:34:50.402Z,67
2018-06-04T14:35:52.402Z,64
2018-06-04T14:36:54.406Z,62
2018-06-04T14:37:56.408Z,65
2018-06-04T14:38:58.465Z,64
2018-06-04T14:40:00.475Z,60
2018-06-04T14:41:02.767Z,56
2018-06-04T14:42:04.767Z,56
2018-06-04T14:43:07.069Z,56
2018-06-04T14:44:09.456Z,57
2018-06-04T14:45:11.447Z,59
2018-06-04T14:46:13.834Z,59
2018-06-04T14:47:16.473Z,55
2018-06-04T14:48:18.475Z,52
2018-06-04T14:49:20.478Z,52
2018-06-04T14:50:22.483Z,53
2018-06-04T14:51:24.492Z,52
2018-06-04T14:52:26.868Z,54
2018-06-04T14:53:28.870Z,57